sensor_id;sensor_type;location;lat;lon;timestamp;pressure;altitude;pressure_sealevel;temperature;humidity
33191;BME280;19554;42.652;23.364;2023-04-06T00:00:47;94355.31;;;0.49;64.01
33191;BME280;19554;42.652;23.364;2023-04-06T00:03:13;94344.16;;;0.18;64.24
33191;BME280;19554;42.652;23.364;2023-04-06T00:05:38;94360.13;;;0.29;64.44
33191;BME280;19554;42.652;23.364;2023-04-06T00:08:04;94353.03;;;0.41;64.73
33191;BME280;19554;42.652;23.364;2023-04-06T00:10:30;94350.31;;;0.36;64.54
33191;BME280;19554;42.652;23.364;2023-04-06T00:12:56;94353.41;;;0.33;64.98
33191;BME280;19554;42.652;23.364;2023-04-06T00:15:22;94347.78;;;0.41;64.51
33191;BME280;19554;42.652;23.364;2023-04-06T00:17:48;94331.81;;;0.31;64.55
33191;BME280;19554;42.652;23.364;2023-04-06T00:20:14;94273.25;;;-0.10;64.58
33191;BME280;19554;42.652;23.364;2023-04-06T00:22:39;94346.09;;;0.35;64.44
33191;BME280;19554;42.652;23.364;2023-04-06T00:25:05;94347.44;;;0.37;64.78
33191;BME280;19554;42.652;23.364;2023-04-06T00:27:31;94342.19;;;0.37;64.41
33191;BME280;19554;42.652;23.364;2023-04-06T00:29:56;94342.78;;;0.39;64.64
33191;BME280;19554;42.652;23.364;2023-04-06T00:32:22;94340.16;;;0.39;64.46
33191;BME280;19554;42.652;23.364;2023-04-06T00:34:47;94337.78;;;0.38;64.39
33191;BME280;19554;42.652;23.364;2023-04-06T00:37:12;94233.09;;;-0.22;64.50
33191;BME280;19554;42.652;23.364;2023-04-06T00:39:38;94341.63;;;0.47;64.38
33191;BME280;19554;42.652;23.364;2023-04-06T00:42:11;94254.53;;;-0.02;64.17
33191;BME280;19554;42.652;23.364;2023-04-06T00:44:39;94331.13;;;0.47;64.35
33191;BME280;19554;42.652;23.364;2023-04-06T00:47:05;94335.22;;;0.55;64.20
33191;BME280;19554;42.652;23.364;2023-04-06T00:49:32;94326.06;;;0.57;64.07
33191;BME280;19554;42.652;23.364;2023-04-06T00:51:57;94327.81;;;0.52;64.00
33191;BME280;19554;42.652;23.364;2023-04-06T00:54:23;94324.50;;;0.56;64.15
33191;BME280;19554;42.652;23.364;2023-04-06T00:56:48;94325.97;;;0.52;63.90
33191;BME280;19554;42.652;23.364;2023-04-06T00:59:13;94332.94;;;0.58;64.13
33191;BME280;19554;42.652;23.364;2023-04-06T01:01:39;94322.44;;;0.58;63.88
33191;BME280;19554;42.652;23.364;2023-04-06T01:04:04;94330.88;;;0.60;63.80
33191;BME280;19554;42.652;23.364;2023-04-06T01:06:30;94324.81;;;0.60;63.99
33191;BME280;19554;42.652;23.364;2023-04-06T01:08:55;94324.81;;;0.60;63.57
33191;BME280;19554;42.652;23.364;2023-04-06T01:11:21;94320.34;;;0.60;64.21
33191;BME280;19554;42.652;23.364;2023-04-06T01:13:46;94315.25;;;0.54;63.87
33191;BME280;19554;42.652;23.364;2023-04-06T01:16:11;94318.09;;;0.52;64.27
33191;BME280;19554;42.652;23.364;2023-04-06T01:18:37;94319.59;;;0.48;64.59
33191;BME280;19554;42.652;23.364;2023-04-06T01:21:03;94298.84;;;0.35;64.53
33191;BME280;19554;42.652;23.364;2023-04-06T01:23:28;94260.31;;;0.12;64.82
33191;BME280;19554;42.652;23.364;2023-04-06T01:25:54;94314.47;;;0.41;64.70
33191;BME280;19554;42.652;23.364;2023-04-06T01:28:19;94257.16;;;-0.02;65.04
33191;BME280;19554;42.652;23.364;2023-04-06T01:30:45;94236.97;;;-0.13;65.10
33191;BME280;19554;42.652;23.364;2023-04-06T01:33:10;94290.09;;;0.17;65.13
33191;BME280;19554;42.652;23.364;2023-04-06T01:35:36;94301.47;;;0.35;65.45
33191;BME280;19554;42.652;23.364;2023-04-06T01:38:01;94304.41;;;0.50;65.04
33191;BME280;19554;42.652;23.364;2023-04-06T01:40:27;94299.03;;;0.57;64.63
33191;BME280;19554;42.652;23.364;2023-04-06T01:42:52;94313.06;;;0.62;64.97
33191;BME280;19554;42.652;23.364;2023-04-06T01:45:17;94310.53;;;0.67;64.59
33191;BME280;19554;42.652;23.364;2023-04-06T01:47:43;94300.69;;;0.75;64.61
33191;BME280;19554;42.652;23.364;2023-04-06T01:50:09;94252.34;;;0.47;64.19
33191;BME280;19554;42.652;23.364;2023-04-06T01:52:34;94299.28;;;0.84;64.14
33191;BME280;19554;42.652;23.364;2023-04-06T01:55:00;94294.09;;;0.72;64.22
33191;BME280;19554;42.652;23.364;2023-04-06T01:57:25;94291.31;;;0.79;64.02
33191;BME280;19554;42.652;23.364;2023-04-06T01:59:51;94295.06;;;0.83;64.37
33191;BME280;19554;42.652;23.364;2023-04-06T02:02:16;94282.28;;;0.75;64.23
33191;BME280;19554;42.652;23.364;2023-04-06T02:04:42;94284.91;;;0.75;64.18
33191;BME280;19554;42.652;23.364;2023-04-06T02:07:07;94249.19;;;0.45;64.50
33191;BME280;19554;42.652;23.364;2023-04-06T02:09:32;94289.19;;;0.64;64.69
33191;BME280;19554;42.652;23.364;2023-04-06T02:11:58;94287.47;;;0.69;64.38
33191;BME280;19554;42.652;23.364;2023-04-06T02:14:25;94286.06;;;0.79;63.96
33191;BME280;19554;42.652;23.364;2023-04-06T02:16:51;94288.19;;;0.82;64.05
33191;BME280;19554;42.652;23.364;2023-04-06T02:19:16;94235.66;;;0.53;63.86
33191;BME280;19554;42.652;23.364;2023-04-06T02:21:42;94273.47;;;0.81;63.70
33191;BME280;19554;42.652;23.364;2023-04-06T02:24:07;94273.00;;;0.84;63.86
33191;BME280;19554;42.652;23.364;2023-04-06T02:26:33;94287.22;;;1.00;63.56
33191;BME280;19554;42.652;23.364;2023-04-06T02:28:58;94286.97;;;1.01;63.36
33191;BME280;19554;42.652;23.364;2023-04-06T02:31:23;94283.25;;;0.97;63.56
33191;BME280;19554;42.652;23.364;2023-04-06T02:33:49;94281.66;;;0.96;63.72
33191;BME280;19554;42.652;23.364;2023-04-06T02:36:14;94283.38;;;0.90;63.75
33191;BME280;19554;42.652;23.364;2023-04-06T02:38:40;94240.91;;;0.53;63.47
33191;BME280;19554;42.652;23.364;2023-04-06T02:41:05;94279.84;;;0.85;63.92
33191;BME280;19554;42.652;23.364;2023-04-06T02:43:30;94283.84;;;0.87;63.80
33191;BME280;19554;42.652;23.364;2023-04-06T02:45:56;94261.66;;;0.66;63.86
33191;BME280;19554;42.652;23.364;2023-04-06T02:48:21;94266.16;;;0.83;63.85
33191;BME280;19554;42.652;23.364;2023-04-06T02:50:46;94276.03;;;0.76;63.89
33191;BME280;19554;42.652;23.364;2023-04-06T02:53:12;94278.88;;;0.74;64.22
33191;BME280;19554;42.652;23.364;2023-04-06T02:55:37;94253.19;;;0.64;64.28
33191;BME280;19554;42.652;23.364;2023-04-06T02:58:03;94279.84;;;0.85;64.35
33191;BME280;19554;42.652;23.364;2023-04-06T03:00:28;94280.03;;;0.95;64.11
33191;BME280;19554;42.652;23.364;2023-04-06T03:02:53;94279.03;;;0.96;63.86
33191;BME280;19554;42.652;23.364;2023-04-06T03:05:19;94278.69;;;0.92;63.91
33191;BME280;19554;42.652;23.364;2023-04-06T03:07:44;94267.19;;;0.82;64.25
33191;BME280;19554;42.652;23.364;2023-04-06T03:10:11;94273.47;;;0.81;64.49
33191;BME280;19554;42.652;23.364;2023-04-06T03:12:36;94280.25;;;0.77;64.22
33191;BME280;19554;42.652;23.364;2023-04-06T03:15:02;94194.22;;;0.27;64.19
33191;BME280;19554;42.652;23.364;2023-04-06T03:17:27;94270.97;;;0.86;64.58
33191;BME280;19554;42.652;23.364;2023-04-06T03:19:52;94263.28;;;0.84;64.25
33191;BME280;19554;42.652;23.364;2023-04-06T03:22:19;94159.25;;;0.09;64.33
33191;BME280;19554;42.652;23.364;2023-04-06T03:24:45;94262.63;;;0.77;64.24
33191;BME280;19554;42.652;23.364;2023-04-06T03:27:10;94259.59;;;0.68;64.35
33191;BME280;19554;42.652;23.364;2023-04-06T03:29:36;94170.31;;;0.11;64.56
33191;BME280;19554;42.652;23.364;2023-04-06T03:32:01;94272.75;;;0.68;64.87
33191;BME280;19554;42.652;23.364;2023-04-06T03:34:27;94264.38;;;0.71;65.01
33191;BME280;19554;42.652;23.364;2023-04-06T03:36:52;94265.59;;;0.81;64.61
33191;BME280;19554;42.652;23.364;2023-04-06T03:39:18;94273.88;;;0.73;64.76
33191;BME280;19554;42.652;23.364;2023-04-06T03:41:43;94197.88;;;0.26;64.34
33191;BME280;19554;42.652;23.364;2023-04-06T03:44:09;94273.94;;;0.78;64.43
33191;BME280;19554;42.652;23.364;2023-04-06T03:46:35;94264.84;;;0.68;64.51
33191;BME280;19554;42.652;23.364;2023-04-06T03:49:00;94266.63;;;0.80;64.20
33191;BME280;19554;42.652;23.364;2023-04-06T03:51:26;94263.06;;;0.86;64.44
33191;BME280;19554;42.652;23.364;2023-04-06T03:53:52;94250.09;;;0.79;63.69
33191;BME280;19554;42.652;23.364;2023-04-06T03:56:17;94272.06;;;0.90;63.91
33191;BME280;19554;42.652;23.364;2023-04-06T03:58:43;94260.78;;;0.89;63.48
33191;BME280;19554;42.652;23.364;2023-04-06T04:01:10;94259.88;;;0.84;64.03
33191;BME280;19554;42.652;23.364;2023-04-06T04:03:35;94182.22;;;0.31;64.16
33191;BME280;19554;42.652;23.364;2023-04-06T04:06:01;94262.75;;;0.82;63.66
33191;BME280;19554;42.652;23.364;2023-04-06T04:08:26;94260.44;;;0.86;65.20
33191;BME280;19554;42.652;23.364;2023-04-06T04:10:51;94267.28;;;0.87;64.00
33191;BME280;19554;42.652;23.364;2023-04-06T04:13:17;94252.13;;;0.77;63.91
33191;BME280;19554;42.652;23.364;2023-04-06T04:15:42;94262.31;;;0.74;64.57
33191;BME280;19554;42.652;23.364;2023-04-06T04:18:08;94248.34;;;0.56;64.25
33191;BME280;19554;42.652;23.364;2023-04-06T04:20:33;94265.94;;;0.56;64.79
33191;BME280;19554;42.652;23.364;2023-04-06T04:22:59;94269.91;;;0.58;64.90
33191;BME280;19554;42.652;23.364;2023-04-06T04:25:24;94258.47;;;0.64;64.61
33191;BME280;19554;42.652;23.364;2023-04-06T04:27:50;94246.19;;;0.53;64.67
33191;BME280;19554;42.652;23.364;2023-04-06T04:30:16;94271.38;;;0.66;64.93
33191;BME280;19554;42.652;23.364;2023-04-06T04:32:41;94173.28;;;0.03;64.73
33191;BME280;19554;42.652;23.364;2023-04-06T04:35:07;94254.81;;;0.65;64.65
33191;BME280;19554;42.652;23.364;2023-04-06T04:37:32;94275.38;;;0.85;64.59
33191;BME280;19554;42.652;23.364;2023-04-06T04:39:59;94262.50;;;0.84;64.06
33191;BME280;19554;42.652;23.364;2023-04-06T04:42:25;94269.53;;;0.95;63.92
33191;BME280;19554;42.652;23.364;2023-04-06T04:44:50;94273.06;;;1.01;64.00
33191;BME280;19554;42.652;23.364;2023-04-06T04:47:15;94266.06;;;1.06;63.49
33191;BME280;19554;42.652;23.364;2023-04-06T04:49:41;94273.56;;;1.14;63.51
33191;BME280;19554;42.652;23.364;2023-04-06T04:52:06;94264.31;;;1.12;63.23
33191;BME280;19554;42.652;23.364;2023-04-06T04:54:32;94272.13;;;1.24;63.00
33191;BME280;19554;42.652;23.364;2023-04-06T04:56:57;94266.94;;;1.29;62.73
33191;BME280;19554;42.652;23.364;2023-04-06T04:59:22;94272.31;;;1.34;62.40
33191;BME280;19554;42.652;23.364;2023-04-06T05:01:48;94267.53;;;1.31;62.65
33191;BME280;19554;42.652;23.364;2023-04-06T05:04:13;94271.16;;;1.30;62.32
33191;BME280;19554;42.652;23.364;2023-04-06T05:06:39;94267.53;;;1.31;62.31
33191;BME280;19554;42.652;23.364;2023-04-06T05:09:04;94270.06;;;1.42;62.15
33191;BME280;19554;42.652;23.364;2023-04-06T05:11:30;94271.25;;;1.35;62.57
33191;BME280;19554;42.652;23.364;2023-04-06T05:13:56;94278.38;;;1.51;62.66
33191;BME280;19554;42.652;23.364;2023-04-06T05:16:21;94265.44;;;1.66;61.87
33191;BME280;19554;42.652;23.364;2023-04-06T05:18:47;94176.13;;;1.04;61.67
33191;BME280;19554;42.652;23.364;2023-04-06T05:21:13;94274.22;;;1.55;61.86
33191;BME280;19554;42.652;23.364;2023-04-06T05:23:38;94274.38;;;1.32;62.88
33191;BME280;19554;42.652;23.364;2023-04-06T05:26:04;94273.41;;;1.38;62.97
33191;BME280;19554;42.652;23.364;2023-04-06T05:28:30;94207.91;;;0.86;63.04
33191;BME280;19554;42.652;23.364;2023-04-06T05:30:55;94283.28;;;1.31;62.90
33191;BME280;19554;42.652;23.364;2023-04-06T05:33:22;94239.94;;;1.00;63.78
33191;BME280;19554;42.652;23.364;2023-04-06T05:35:47;94281.03;;;1.23;63.85
33191;BME280;19554;42.652;23.364;2023-04-06T05:38:12;94286.53;;;1.21;63.85
33191;BME280;19554;42.652;23.364;2023-04-06T05:40:38;94173.44;;;0.54;63.89
33191;BME280;19554;42.652;23.364;2023-04-06T05:43:06;94224.78;;;0.90;64.01
33191;BME280;19554;42.652;23.364;2023-04-06T05:45:32;94280.75;;;1.36;64.20
33191;BME280;19554;42.652;23.364;2023-04-06T05:47:57;94279.16;;;1.52;63.72
33191;BME280;19554;42.652;23.364;2023-04-06T05:50:23;94277.25;;;1.47;63.70
33191;BME280;19554;42.652;23.364;2023-04-06T05:52:48;94274.69;;;1.52;63.72
33191;BME280;19554;42.652;23.364;2023-04-06T05:55:13;94273.97;;;1.57;63.83
33191;BME280;19554;42.652;23.364;2023-04-06T05:57:39;94259.56;;;1.42;64.13
33191;BME280;19554;42.652;23.364;2023-04-06T06:00:05;94268.97;;;1.55;63.80
33191;BME280;19554;42.652;23.364;2023-04-06T06:02:33;94259.06;;;1.62;63.62
33191;BME280;19554;42.652;23.364;2023-04-06T06:04:58;94217.78;;;1.46;63.63
33191;BME280;19554;42.652;23.364;2023-04-06T06:07:24;94268.31;;;1.82;63.66
33191;BME280;19554;42.652;23.364;2023-04-06T06:09:49;94268.06;;;1.83;63.77
33191;BME280;19554;42.652;23.364;2023-04-06T06:12:15;94252.38;;;1.72;63.64
33191;BME280;19554;42.652;23.364;2023-04-06T06:14:40;94251.91;;;1.75;63.78
33191;BME280;19554;42.652;23.364;2023-04-06T06:17:06;94261.53;;;1.86;63.81
33191;BME280;19554;42.652;23.364;2023-04-06T06:19:31;94237.56;;;1.65;63.79
33191;BME280;19554;42.652;23.364;2023-04-06T06:21:56;94268.47;;;1.92;63.71
33191;BME280;19554;42.652;23.364;2023-04-06T06:24:22;94233.41;;;1.70;63.59
33191;BME280;19554;42.652;23.364;2023-04-06T06:26:47;94175.66;;;1.41;63.92
33191;BME280;19554;42.652;23.364;2023-04-06T06:29:14;94264.66;;;2.05;64.10
33191;BME280;19554;42.652;23.364;2023-04-06T06:31:40;94257.09;;;2.08;63.83
33191;BME280;19554;42.652;23.364;2023-04-06T06:34:05;94259.28;;;2.33;63.83
33191;BME280;19554;42.652;23.364;2023-04-06T06:36:31;94253.44;;;2.53;63.37
33191;BME280;19554;42.652;23.364;2023-04-06T06:38:57;94244.25;;;2.78;62.72
33191;BME280;19554;42.652;23.364;2023-04-06T06:41:24;94250.63;;;3.14;61.34
33191;BME280;19554;42.652;23.364;2023-04-06T06:43:49;94213.00;;;3.19;60.66
33191;BME280;19554;42.652;23.364;2023-04-06T06:46:15;94258.69;;;3.56;59.57
33191;BME280;19554;42.652;23.364;2023-04-06T06:48:40;94229.06;;;3.49;58.67
33191;BME280;19554;42.652;23.364;2023-04-06T06:51:06;94136.97;;;3.11;58.65
33191;BME280;19554;42.652;23.364;2023-04-06T06:53:31;94229.91;;;3.97;57.35
33191;BME280;19554;42.652;23.364;2023-04-06T06:55:56;94256.78;;;4.32;57.73
33191;BME280;19554;42.652;23.364;2023-04-06T06:58:22;94259.75;;;4.50;56.76
33191;BME280;19554;42.652;23.364;2023-04-06T07:00:47;94259.56;;;4.67;56.97
33191;BME280;19554;42.652;23.364;2023-04-06T07:03:13;94253.81;;;4.81;55.94
33191;BME280;19554;42.652;23.364;2023-04-06T07:05:38;94247.66;;;4.60;55.84
33191;BME280;19554;42.652;23.364;2023-04-06T07:08:04;94250.59;;;4.73;55.62
33191;BME280;19554;42.652;23.364;2023-04-06T07:10:30;94244.03;;;4.91;55.02
33191;BME280;19554;42.652;23.364;2023-04-06T07:12:55;94236.66;;;4.93;54.60
33191;BME280;19554;42.652;23.364;2023-04-06T07:15:21;94247.16;;;4.73;55.12
33191;BME280;19554;42.652;23.364;2023-04-06T07:17:46;94247.13;;;4.63;54.71
33191;BME280;19554;42.652;23.364;2023-04-06T07:20:12;94244.00;;;4.76;55.59
33191;BME280;19554;42.652;23.364;2023-04-06T07:22:39;94241.94;;;4.93;54.77
33191;BME280;19554;42.652;23.364;2023-04-06T07:25:04;94246.22;;;5.10;53.83
33191;BME280;19554;42.652;23.364;2023-04-06T07:27:30;94226.63;;;5.01;53.58
33191;BME280;19554;42.652;23.364;2023-04-06T07:29:56;94248.38;;;5.38;52.97
33191;BME280;19554;42.652;23.364;2023-04-06T07:32:21;94251.50;;;5.15;53.06
33191;BME280;19554;42.652;23.364;2023-04-06T07:34:47;94254.69;;;5.32;53.22
33191;BME280;19554;42.652;23.364;2023-04-06T07:37:12;94250.22;;;5.43;52.69
33191;BME280;19554;42.652;23.364;2023-04-06T07:39:37;94202.56;;;5.12;52.84
33191;BME280;19554;42.652;23.364;2023-04-06T07:42:03;94245.19;;;5.31;52.75
33191;BME280;19554;42.652;23.364;2023-04-06T07:44:28;94226.66;;;5.31;52.37
33191;BME280;19554;42.652;23.364;2023-04-06T07:46:54;94243.25;;;4.91;52.42
33191;BME280;19554;42.652;23.364;2023-04-06T07:49:19;94246.19;;;4.99;53.30
33191;BME280;19554;42.652;23.364;2023-04-06T07:51:46;94234.84;;;5.19;53.08
33191;BME280;19554;42.652;23.364;2023-04-06T07:54:11;94249.16;;;5.44;53.48
33191;BME280;19554;42.652;23.364;2023-04-06T07:56:36;94247.31;;;5.55;52.37
33191;BME280;19554;42.652;23.364;2023-04-06T07:59:02;94238.84;;;5.53;51.83
33191;BME280;19554;42.652;23.364;2023-04-06T08:01:28;94237.78;;;5.64;52.01
33191;BME280;19554;42.652;23.364;2023-04-06T08:03:55;94222.41;;;5.86;51.88
33191;BME280;19554;42.652;23.364;2023-04-06T08:06:21;94181.88;;;5.91;51.50
33191;BME280;19554;42.652;23.364;2023-04-06T08:08:46;94237.69;;;6.40;50.51
33191;BME280;19554;42.652;23.364;2023-04-06T08:11:12;94215.47;;;6.21;50.69
33191;BME280;19554;42.652;23.364;2023-04-06T08:13:37;94231.31;;;6.41;50.26
33191;BME280;19554;42.652;23.364;2023-04-06T08:16:03;94228.09;;;6.55;49.95
33191;BME280;19554;42.652;23.364;2023-04-06T08:18:28;94242.91;;;6.61;50.11
33191;BME280;19554;42.652;23.364;2023-04-06T08:20:55;94235.81;;;6.46;49.75
33191;BME280;19554;42.652;23.364;2023-04-06T08:23:20;94238.69;;;6.55;49.79
33191;BME280;19554;42.652;23.364;2023-04-06T08:25:46;94241.91;;;6.47;49.63
33191;BME280;19554;42.652;23.364;2023-04-06T08:28:11;94244.56;;;6.41;50.35
33191;BME280;19554;42.652;23.364;2023-04-06T08:30:40;94235.19;;;6.70;50.16
33191;BME280;19554;42.652;23.364;2023-04-06T08:33:05;94232.22;;;6.81;48.79
33191;BME280;19554;42.652;23.364;2023-04-06T08:35:31;94229.59;;;6.76;48.85
33191;BME280;19554;42.652;23.364;2023-04-06T08:37:57;94243.41;;;6.68;49.05
33191;BME280;19554;42.652;23.364;2023-04-06T08:40:22;94227.41;;;6.88;47.96
33191;BME280;19554;42.652;23.364;2023-04-06T08:42:55;94243.97;;;6.65;48.56
33191;BME280;19554;42.652;23.364;2023-04-06T08:45:21;94246.44;;;7.01;47.29
33191;BME280;19554;42.652;23.364;2023-04-06T08:47:51;94242.06;;;7.25;46.90
33191;BME280;19554;42.652;23.364;2023-04-06T08:50:18;94239.97;;;7.17;45.53
33191;BME280;19554;42.652;23.364;2023-04-06T08:52:46;94243.34;;;6.88;45.75
33191;BME280;19554;42.652;23.364;2023-04-06T08:55:12;94242.78;;;6.86;46.78
33191;BME280;19554;42.652;23.364;2023-04-06T08:57:37;94237.38;;;7.12;46.86
33191;BME280;19554;42.652;23.364;2023-04-06T09:00:04;94228.97;;;7.39;45.17
33191;BME280;19554;42.652;23.364;2023-04-06T09:02:29;94232.69;;;7.38;45.02
33191;BME280;19554;42.652;23.364;2023-04-06T09:04:55;94228.69;;;7.41;44.88
33191;BME280;19554;42.652;23.364;2023-04-06T09:07:21;94143.19;;;7.09;44.41
33191;BME280;19554;42.652;23.364;2023-04-06T09:09:47;94216.09;;;7.56;44.78
33191;BME280;19554;42.652;23.364;2023-04-06T09:12:29;94224.53;;;7.24;43.87
33191;BME280;19554;42.652;23.364;2023-04-06T09:14:56;94210.91;;;7.02;44.98
33191;BME280;19554;42.652;23.364;2023-04-06T09:17:27;94224.53;;;7.29;45.06
33191;BME280;19554;42.652;23.364;2023-04-06T09:19:52;94219.16;;;7.34;45.11
33191;BME280;19554;42.652;23.364;2023-04-06T09:22:19;94227.19;;;7.29;45.12
33191;BME280;19554;42.652;23.364;2023-04-06T09:24:47;94221.31;;;7.32;45.35
33191;BME280;19554;42.652;23.364;2023-04-06T09:27:14;94220.78;;;7.30;45.28
33191;BME280;19554;42.652;23.364;2023-04-06T09:29:40;94213.31;;;7.38;45.30
33191;BME280;19554;42.652;23.364;2023-04-06T09:32:07;94206.97;;;7.33;45.28
33191;BME280;19554;42.652;23.364;2023-04-06T09:34:33;94202.69;;;7.38;45.88
33191;BME280;19554;42.652;23.364;2023-04-06T09:36:59;94211.03;;;7.60;45.47
33191;BME280;19554;42.652;23.364;2023-04-06T09:39:25;94210.50;;;7.58;45.42
33191;BME280;19554;42.652;23.364;2023-04-06T09:41:52;94211.81;;;7.60;45.02
33191;BME280;19554;42.652;23.364;2023-04-06T09:44:17;94210.53;;;7.53;44.40
33191;BME280;19554;42.652;23.364;2023-04-06T09:46:44;94215.53;;;7.25;44.98
33191;BME280;19554;42.652;23.364;2023-04-06T09:49:11;94220.91;;;7.15;44.90
33191;BME280;19554;42.652;23.364;2023-04-06T09:51:39;94199.41;;;6.67;45.84
33191;BME280;19554;42.652;23.364;2023-04-06T09:54:06;94219.56;;;6.63;45.96
33191;BME280;19554;42.652;23.364;2023-04-06T10:01:53;94224.44;;;6.35;45.86
33191;BME280;19554;42.652;23.364;2023-04-06T10:04:32;94220.72;;;6.47;46.03
33191;BME280;19554;42.652;23.364;2023-04-06T10:07:02;94148.75;;;6.04;45.86
33191;BME280;19554;42.652;23.364;2023-04-06T10:09:29;94231.78;;;6.59;46.03
33191;BME280;19554;42.652;23.364;2023-04-06T10:12:03;94227.50;;;6.68;46.27
33191;BME280;19554;42.652;23.364;2023-04-06T10:14:29;94223.47;;;6.81;45.21
33191;BME280;19554;42.652;23.364;2023-04-06T10:16:56;94218.41;;;6.84;45.39
33191;BME280;19554;42.652;23.364;2023-04-06T10:19:27;94221.13;;;6.74;45.16
33191;BME280;19554;42.652;23.364;2023-04-06T10:21:57;94220.63;;;6.67;44.60
33191;BME280;19554;42.652;23.364;2023-04-06T10:24:24;94211.00;;;6.81;44.67
33191;BME280;19554;42.652;23.364;2023-04-06T10:27:02;94218.22;;;6.65;44.50
33191;BME280;19554;42.652;23.364;2023-04-06T10:29:28;94217.34;;;6.85;45.29
33191;BME280;19554;42.652;23.364;2023-04-06T10:32:05;94221.13;;;6.74;44.52
33191;BME280;19554;42.652;23.364;2023-04-06T10:34:36;94219.72;;;6.87;44.99
33191;BME280;19554;42.652;23.364;2023-04-06T10:37:15;94165.97;;;6.66;44.23
33191;BME280;19554;42.652;23.364;2023-04-06T10:39:53;94213.00;;;7.00;44.88
33191;BME280;19554;42.652;23.364;2023-04-06T10:42:24;94198.47;;;6.32;43.76
33191;BME280;19554;42.652;23.364;2023-04-06T10:44:50;94161.78;;;5.95;45.08
33191;BME280;19554;42.652;23.364;2023-04-06T10:47:17;94213.28;;;6.44;44.93
33191;BME280;19554;42.652;23.364;2023-04-06T10:49:45;94217.22;;;6.51;44.52
33191;BME280;19554;42.652;23.364;2023-04-06T10:52:11;94204.34;;;6.29;45.08
33191;BME280;19554;42.652;23.364;2023-04-06T10:54:41;94221.78;;;6.40;45.29
33191;BME280;19554;42.652;23.364;2023-04-06T10:57:07;94191.63;;;6.21;45.26
33191;BME280;19554;42.652;23.364;2023-04-06T10:59:32;94203.78;;;6.32;45.38
33191;BME280;19554;42.652;23.364;2023-04-06T11:01:57;94204.84;;;6.36;45.30
33191;BME280;19554;42.652;23.364;2023-04-06T11:04:24;94196.34;;;6.34;45.30
33191;BME280;19554;42.652;23.364;2023-04-06T11:06:50;94208.03;;;6.28;46.01
33191;BME280;19554;42.652;23.364;2023-04-06T11:09:25;94204.31;;;6.39;45.64
33191;BME280;19554;42.652;23.364;2023-04-06T11:11:51;94199.22;;;6.48;46.09
33191;BME280;19554;42.652;23.364;2023-04-06T11:14:17;94204.81;;;6.47;46.63
33191;BME280;19554;42.652;23.364;2023-04-06T11:16:46;94195.22;;;6.51;46.02
33191;BME280;19554;42.652;23.364;2023-04-06T11:19:13;94201.91;;;6.38;45.72
33191;BME280;19554;42.652;23.364;2023-04-06T11:21:43;94148.22;;;6.07;45.78
33191;BME280;19554;42.652;23.364;2023-04-06T11:26:51;94133.31;;;6.21;45.18
33191;BME280;19554;42.652;23.364;2023-04-06T11:29:19;94198.72;;;6.41;45.77
33191;BME280;19554;42.652;23.364;2023-04-06T11:31:49;94183.91;;;6.30;45.66
33191;BME280;19554;42.652;23.364;2023-04-06T11:34:20;94180.97;;;6.36;46.70
33191;BME280;19554;42.652;23.364;2023-04-06T11:36:48;94179.97;;;6.12;46.04
33191;BME280;19554;42.652;23.364;2023-04-06T11:39:19;94192.25;;;5.92;47.27
33191;BME280;19554;42.652;23.364;2023-04-06T11:42:01;94179.75;;;6.03;46.92
33191;BME280;19554;42.652;23.364;2023-04-06T11:44:37;94182.69;;;6.02;46.21
33191;BME280;19554;42.652;23.364;2023-04-06T11:47:09;94172.03;;;6.12;46.18
33191;BME280;19554;42.652;23.364;2023-04-06T11:49:40;94168.38;;;6.03;46.33
33191;BME280;19554;42.652;23.364;2023-04-06T11:52:17;94182.16;;;5.94;46.55
33191;BME280;19554;42.652;23.364;2023-04-06T11:54:44;94173.13;;;6.06;46.83
33191;BME280;19554;42.652;23.364;2023-04-06T11:57:10;94174.69;;;6.17;46.77
33191;BME280;19554;42.652;23.364;2023-04-06T11:59:36;94098.03;;;5.61;45.85
33191;BME280;19554;42.652;23.364;2023-04-06T12:02:02;94172.16;;;5.61;46.49
33191;BME280;19554;42.652;23.364;2023-04-06T12:04:28;94178.50;;;5.65;47.23
33191;BME280;19554;42.652;23.364;2023-04-06T12:06:54;94176.06;;;5.84;47.06
33191;BME280;19554;42.652;23.364;2023-04-06T12:09:19;94183.22;;;5.93;47.18
33191;BME280;19554;42.652;23.364;2023-04-06T12:11:45;94090.09;;;5.45;47.19
33191;BME280;19554;42.652;23.364;2023-04-06T12:14:11;94178.41;;;6.11;47.32
33191;BME280;19554;42.652;23.364;2023-04-06T12:16:37;94155.09;;;6.08;46.82
33191;BME280;19554;42.652;23.364;2023-04-06T12:19:03;94177.59;;;6.21;46.47
33191;BME280;19554;42.652;23.364;2023-04-06T12:21:28;94171.72;;;6.29;46.28
33191;BME280;19554;42.652;23.364;2023-04-06T12:23:54;94166.44;;;6.18;46.34
33191;BME280;19554;42.652;23.364;2023-04-06T12:26:21;94111.47;;;5.75;46.83
33191;BME280;19554;42.652;23.364;2023-04-06T12:28:46;94109.59;;;5.85;47.27
33191;BME280;19554;42.652;23.364;2023-04-06T12:31:19;94171.50;;;6.15;47.05
33191;BME280;19554;42.652;23.364;2023-04-06T12:33:51;94154.59;;;6.01;46.90
33191;BME280;19554;42.652;23.364;2023-04-06T12:36:18;94173.09;;;6.16;47.22
33191;BME280;19554;42.652;23.364;2023-04-06T12:38:47;94159.31;;;6.14;47.17
33191;BME280;19554;42.652;23.364;2023-04-06T12:41:13;94169.91;;;6.14;46.66
33191;BME280;19554;42.652;23.364;2023-04-06T12:43:40;94128.13;;;5.80;46.15
33191;BME280;19554;42.652;23.364;2023-04-06T12:46:06;94160.41;;;6.08;46.17
33191;BME280;19554;42.652;23.364;2023-04-06T12:48:31;94157.78;;;5.87;46.52
33191;BME280;19554;42.652;23.364;2023-04-06T12:50:59;94147.50;;;5.76;46.57
33191;BME280;19554;42.652;23.364;2023-04-06T12:53:26;94096.72;;;5.43;46.92
33191;BME280;19554;42.652;23.364;2023-04-06T12:55:54;94156.19;;;5.86;46.88
33191;BME280;19554;42.652;23.364;2023-04-06T12:58:20;94149.28;;;5.90;46.98
33191;BME280;19554;42.652;23.364;2023-04-06T13:00:47;94149.03;;;5.97;46.62
33191;BME280;19554;42.652;23.364;2023-04-06T13:03:13;94150.38;;;5.89;46.45